createdAt,value
2023-12-12T00:02:10.994Z,98968.84
2023-12-12T00:04:39.275Z,98964.78
2023-12-12T00:07:06.512Z,98963.91
2023-12-12T00:09:33.578Z,98957.13
2023-12-12T00:12:00.599Z,98951.97
2023-12-12T00:14:27.670Z,98942.59
2023-12-12T00:16:57.404Z,98936.63
2023-12-12T00:19:24.464Z,98938.44
2023-12-12T00:21:51.746Z,98944.41
2023-12-12T00:24:18.894Z,98937.38
2023-12-12T00:26:45.805Z,98944.22
2023-12-12T00:29:12.817Z,98952.06
2023-12-12T00:31:40.039Z,98962.41
2023-12-12T00:34:07.211Z,98952.84
2023-12-12T00:36:34.523Z,98953.72
2023-12-12T00:39:01.903Z,98944.19
2023-12-12T00:41:36.279Z,98934.72
2023-12-12T00:44:03.757Z,98946.72
2023-12-12T00:46:30.764Z,98946.72
2023-12-12T00:48:57.806Z,98949.22
2023-12-12T00:51:25.034Z,98947.53
2023-12-12T00:53:51.866Z,98950.06
2023-12-12T00:56:18.851Z,98944.19
2023-12-12T00:58:45.850Z,98954.63
2023-12-12T01:01:15.526Z,98955.38
2023-12-12T01:03:42.771Z,98967.50
2023-12-12T01:06:10.360Z,98963.22
2023-12-12T01:08:37.292Z,98965.00
2023-12-12T01:11:04.412Z,98969.50
2023-12-12T01:13:31.508Z,98971.25
2023-12-12T01:15:58.586Z,98959.34
2023-12-12T01:18:25.610Z,98964.50
2023-12-12T01:20:52.766Z,98963.53
2023-12-12T01:23:19.748Z,98978.22
2023-12-12T01:25:46.689Z,98953.00
2023-12-12T01:28:13.814Z,98971.34
2023-12-12T01:30:40.870Z,98975.53
2023-12-12T01:33:07.957Z,98973.00
2023-12-12T01:35:34.854Z,98982.50
2023-12-12T01:38:02.109Z,98967.72
2023-12-12T01:40:29.604Z,98973.03
2023-12-12T01:43:06.949Z,98974.84
2023-12-12T01:45:34.576Z,98963.47
2023-12-12T01:48:02.180Z,98962.69
2023-12-12T01:50:29.391Z,98972.25
2023-12-12T01:52:57.414Z,98966.25
2023-12-12T01:55:24.979Z,98951.56
2023-12-12T01:57:52.330Z,98954.16
2023-12-12T02:03:00.810Z,98953.44
2023-12-12T02:05:30.854Z,98948.22
2023-12-12T02:08:00.058Z,98946.53
2023-12-12T02:10:27.866Z,98939.53
2023-12-12T02:12:58.215Z,98949.06
2023-12-12T02:15:25.304Z,98958.75
2023-12-12T02:17:52.478Z,98955.25
2023-12-12T02:20:19.644Z,98946.63
2023-12-12T02:22:46.793Z,98948.41
2023-12-12T02:25:17.261Z,98963.06
2023-12-12T02:27:44.836Z,98956.97
2023-12-12T02:30:13.552Z,98970.66
2023-12-12T02:32:40.768Z,98971.56
2023-12-12T02:35:08.252Z,98980.19
2023-12-12T02:37:35.742Z,98981.78
2023-12-12T02:40:03.125Z,98981.88
2023-12-12T02:42:30.456Z,98972.38
2023-12-12T02:44:58.567Z,98976.72
2023-12-12T02:47:25.873Z,98975.06
2023-12-12T02:49:53.166Z,98960.34
2023-12-12T02:52:20.629Z,98963.75
2023-12-12T02:54:47.627Z,98962.97
2023-12-12T02:57:14.710Z,98991.44
2023-12-12T02:59:42.027Z,98986.16
2023-12-12T03:02:09.075Z,98990.53
2023-12-12T03:04:36.237Z,98991.41
2023-12-12T03:07:03.388Z,98976.75
2023-12-12T03:09:30.531Z,98992.38
2023-12-12T03:11:58.650Z,98993.25
2023-12-12T03:14:31.734Z,98987.38
2023-12-12T03:16:59.403Z,98986.38
2023-12-12T03:19:26.832Z,98983.09
2023-12-12T03:21:54.590Z,98974.47
2023-12-12T03:24:21.864Z,98986.44
2023-12-12T03:26:49.032Z,98983.16
2023-12-12T03:29:16.100Z,98995.22
2023-12-12T03:31:43.030Z,98983.97
2023-12-12T03:34:10.068Z,98980.50
2023-12-12T03:36:37.220Z,98988.38
2023-12-12T03:39:04.221Z,98978.91
2023-12-12T03:41:31.991Z,98987.59
2023-12-12T03:43:58.974Z,98980.72
2023-12-12T03:46:26.509Z,98978.97
2023-12-12T03:48:53.536Z,98986.72
2023-12-12T03:51:21.392Z,98996.25
2023-12-12T03:53:48.331Z,98997.81
2023-12-12T03:56:15.461Z,99000.41
2023-12-12T03:58:42.771Z,99003.03
2023-12-12T05:04:10.371Z,99029.69
2023-12-12T05:06:37.373Z,99037.53
2023-12-12T05:09:05.389Z,99048.00
2023-12-12T05:11:32.382Z,99044.44
2023-12-12T05:13:59.677Z,99060.91
2023-12-12T05:16:31.843Z,99065.97
2023-12-12T05:19:01.883Z,99071.06
2023-12-12T05:21:29.113Z,99071.78
2023-12-12T05:23:56.042Z,99076.19
2023-12-12T05:26:23.353Z,99085.78
2023-12-12T05:28:50.318Z,99083.16
2023-12-12T05:31:17.869Z,99085.72
2023-12-12T05:33:45.273Z,99073.66
2023-12-12T05:36:12.311Z,99073.66
2023-12-12T05:38:40.430Z,99082.38
2023-12-12T05:41:08.118Z,99090.16
2023-12-12T05:43:35.699Z,99076.34
2023-12-12T05:46:04.722Z,99076.34
2023-12-12T05:48:32.269Z,99077.09
2023-12-12T05:50:59.289Z,99057.38
2023-12-12T05:53:28.243Z,99071.28
2023-12-12T05:55:57.547Z,99074.75
2023-12-12T05:58:24.890Z,99074.69
2023-12-12T06:00:53.254Z,99089.53
2023-12-12T06:03:20.559Z,99080.97
2023-12-12T06:05:47.530Z,99093.03
2023-12-12T06:08:15.014Z,99086.03
2023-12-12T06:10:42.153Z,99088.66
2023-12-12T06:13:10.250Z,99097.19
2023-12-12T06:15:37.283Z,99089.53
2023-12-12T06:18:04.374Z,99100.00
2023-12-12T06:20:33.856Z,99095.69
2023-12-12T06:23:01.088Z,99093.84
2023-12-12T06:25:28.365Z,99094.81
2023-12-12T06:27:55.508Z,99092.28
2023-12-12T06:30:22.636Z,99096.66
2023-12-12T06:32:49.875Z,99093.09
2023-12-12T06:35:18.474Z,99103.56
2023-12-12T06:37:46.085Z,99114.84
2023-12-12T06:40:14.985Z,99119.25
2023-12-12T06:42:51.119Z,99109.84
2023-12-12T06:45:18.011Z,99111.50
2023-12-12T06:47:45.044Z,99115.97
2023-12-12T06:50:13.092Z,99116.03
2023-12-12T06:52:40.221Z,99106.88
2023-12-12T06:55:07.519Z,99118.31
2023-12-12T06:57:34.760Z,99123.25
2023-12-12T08:04:23.012Z,99165.63
2023-12-12T08:06:50.119Z,99165.63
2023-12-12T08:09:16.973Z,99163.91
2023-12-12T08:11:44.048Z,99176.06
2023-12-12T08:14:11.221Z,99177.78
2023-12-12T08:16:39.329Z,99174.16
2023-12-12T08:19:07.589Z,99175.34
2023-12-12T08:21:36.165Z,99183.22
2023-12-12T08:24:04.450Z,99165.16
2023-12-12T08:26:31.522Z,99178.22
2023-12-12T08:28:58.390Z,99186.25
2023-12-12T08:31:25.536Z,99166.41
2023-12-12T08:33:54.891Z,99166.47
2023-12-12T08:36:28.466Z,99170.94
2023-12-12T08:38:55.432Z,99173.63
2023-12-12T08:41:34.871Z,99173.81
2023-12-12T08:44:02.024Z,99178.13
2023-12-12T08:46:31.027Z,99178.16
2023-12-12T08:48:58.876Z,99189.44
2023-12-12T08:51:29.907Z,99172.06
2023-12-12T08:54:05.132Z,99171.19
2023-12-12T08:56:40.184Z,99165.09
2023-12-12T08:59:08.119Z,99167.72
2023-12-12T09:01:35.221Z,99161.41
2023-12-12T09:04:02.351Z,99171.13
2023-12-12T09:06:29.953Z,99172.94
2023-12-12T09:08:56.980Z,99170.34
2023-12-12T09:11:24.970Z,99170.31
2023-12-12T09:13:52.215Z,99170.28
2023-12-12T09:16:19.467Z,99160.75
2023-12-12T09:18:46.599Z,99152.91
2023-12-12T09:21:13.924Z,99147.69
2023-12-12T09:23:43.396Z,99145.09
2023-12-12T09:26:20.160Z,99132.09
2023-12-12T09:28:48.665Z,99141.34
2023-12-12T09:31:15.833Z,99141.75
2023-12-12T09:33:43.023Z,99134.22
2023-12-12T09:36:11.047Z,99140.63
2023-12-12T09:38:38.426Z,99135.88
2023-12-12T09:41:16.899Z,99142.38
2023-12-12T09:43:46.427Z,99142.53
2023-12-12T09:46:14.041Z,99132.59
2023-12-12T09:48:54.117Z,99141.22
2023-12-12T09:51:22.450Z,99136.28
2023-12-12T09:53:50.309Z,99136.41
2023-12-12T09:56:41.565Z,99136.53
2023-12-12T09:59:09.483Z,99129.63
2023-12-12T10:01:37.095Z,99127.75
2023-12-12T10:04:08.200Z,99118.56
2023-12-12T10:06:43.704Z,99129.63
2023-12-12T10:09:15.393Z,99109.31
2023-12-12T10:11:42.472Z,99110.16
2023-12-12T10:14:10.400Z,99096.53
2023-12-12T10:16:37.367Z,99089.00
2023-12-12T10:19:12.908Z,99101.72
2023-12-12T10:21:40.112Z,99097.38
2023-12-12T10:24:12.694Z,99091.69
2023-12-12T10:26:40.221Z,99095.53
2023-12-12T10:29:07.497Z,99100.22
2023-12-12T10:31:36.955Z,99088.06
2023-12-12T10:34:04.850Z,99090.09
2023-12-12T10:36:32.509Z,99074.41
2023-12-12T10:39:21.437Z,99079.69
2023-12-12T10:41:58.538Z,99083.25
2023-12-12T10:44:34.985Z,99088.03
2023-12-12T10:47:05.616Z,99077.84
2023-12-12T10:49:34.346Z,99082.38
2023-12-12T10:52:04.916Z,99075.91
2023-12-12T10:54:35.125Z,99074.41
2023-12-12T10:57:11.510Z,99075.75
2023-12-12T10:59:58.729Z,99077.34
2023-12-12T11:02:29.010Z,99076.09
2023-12-12T11:04:57.258Z,99079.06
2023-12-12T11:07:24.717Z,99066.84
2023-12-12T11:09:52.253Z,99073.69
2023-12-12T11:12:22.028Z,99069.41
2023-12-12T11:14:49.419Z,99059.97
2023-12-12T11:17:16.539Z,99068.19
2023-12-12T11:19:45.082Z,99050.22
2023-12-12T11:22:43.661Z,99040.75
2023-12-12T11:25:19.457Z,99046.41
2023-12-12T11:27:49.295Z,99046.47
2023-12-12T11:30:20.746Z,99026.34
2023-12-12T11:32:48.801Z,99048.28
2023-12-12T11:35:27.485Z,99043.19
2023-12-12T11:37:58.043Z,99043.38
2023-12-12T11:40:29.132Z,99040.72
2023-12-12T11:43:25.445Z,99036.00
2023-12-12T11:45:54.302Z,99035.47
2023-12-12T11:48:21.505Z,99030.22
2023-12-12T11:50:48.676Z,99028.34
2023-12-12T11:53:44.198Z,99029.25
2023-12-12T11:56:11.495Z,99023.09
2023-12-12T11:58:39.493Z,99023.28
2023-12-12T12:04:31.333Z,99021.31
2023-12-12T12:06:58.445Z,99018.97
2023-12-12T12:09:25.701Z,99018.19
2023-12-12T12:11:55.382Z,99002.81
2023-12-12T12:14:23.823Z,98997.59
2023-12-12T12:16:54.673Z,99002.38
2023-12-12T12:19:32.468Z,99006.06
2023-12-12T12:22:14.566Z,99003.69
2023-12-12T12:24:45.822Z,98988.88
2023-12-12T12:27:14.183Z,98990.00
2023-12-12T12:29:41.789Z,98989.16
2023-12-12T12:32:13.361Z,98986.13
2023-12-12T12:34:40.704Z,98985.13
2023-12-12T12:37:08.612Z,98977.28
2023-12-12T12:39:43.925Z,98984.34
2023-12-12T12:42:11.130Z,98973.81
2023-12-12T12:44:42.963Z,98971.38
2023-12-12T12:47:11.491Z,98974.94
2023-12-12T12:49:38.710Z,98978.44
2023-12-12T12:52:06.336Z,98978.38
2023-12-12T12:54:33.363Z,98980.03
2023-12-12T12:57:00.263Z,98972.25
2023-12-12T12:59:27.783Z,98963.59
2023-12-12T13:01:55.216Z,98966.75
2023-12-12T13:04:22.384Z,98958.75
2023-12-12T13:06:49.679Z,98969.16
2023-12-12T13:09:19.395Z,98971.09
2023-12-12T13:11:46.406Z,98963.50
2023-12-12T13:14:21.554Z,98951.59
2023-12-12T13:16:48.870Z,98958.72
2023-12-12T13:19:16.460Z,98963.03
2023-12-12T13:21:44.267Z,98964.88
2023-12-12T13:24:11.222Z,98965.91
2023-12-12T13:26:38.609Z,98960.75
2023-12-12T13:29:05.557Z,98954.72
2023-12-12T13:31:33.992Z,98958.22
2023-12-12T13:34:04.045Z,98964.25
2023-12-12T13:36:33.091Z,98964.31
2023-12-12T13:39:00.473Z,98962.59
2023-12-12T13:41:27.652Z,98960.91
2023-12-12T13:43:54.626Z,98964.41
2023-12-12T13:46:22.050Z,98963.47
2023-12-12T13:48:49.303Z,98957.34
2023-12-12T13:51:19.027Z,98955.72
2023-12-12T13:53:50.919Z,98953.13
2023-12-12T13:56:19.053Z,98954.94
2023-12-12T13:58:54.485Z,98942.03
2023-12-12T14:01:29.256Z,98950.72
2023-12-12T14:03:56.673Z,98948.13
2023-12-12T14:06:23.641Z,98946.41
2023-12-12T14:08:51.955Z,98943.81
2023-12-12T14:11:25.268Z,98949.94
2023-12-12T14:13:52.822Z,98941.25
2023-12-12T14:16:27.412Z,98948.25
2023-12-12T14:18:58.082Z,98951.81
2023-12-12T14:21:25.225Z,98931.88
2023-12-12T14:23:52.257Z,98937.09
2023-12-12T14:26:22.525Z,98939.72
2023-12-12T14:28:55.437Z,98945.81
2023-12-12T14:31:23.204Z,98941.50
2023-12-12T14:33:50.677Z,98941.53
2023-12-12T14:36:18.807Z,98941.59
2023-12-12T14:38:46.459Z,98952.03
2023-12-12T14:41:13.793Z,98938.22
2023-12-12T14:43:48.126Z,98933.06
2023-12-12T14:46:16.573Z,98933.94
2023-12-12T14:48:44.688Z,98947.00
2023-12-12T14:51:14.193Z,98942.66
2023-12-12T14:53:41.578Z,98931.38
2023-12-12T14:56:11.796Z,98940.94
2023-12-12T14:58:41.322Z,98929.69
2023-12-12T15:01:14.739Z,98923.66
2023-12-12T15:03:43.653Z,98919.31
2023-12-12T15:06:15.956Z,98925.41
2023-12-12T15:08:43.106Z,98919.41
2023-12-12T15:11:10.131Z,98914.19
2023-12-12T15:13:37.381Z,98922.88
2023-12-12T15:16:05.245Z,98913.38
2023-12-12T15:18:32.555Z,98915.13
2023-12-12T15:20:59.835Z,98910.78
2023-12-12T15:23:26.754Z,98912.53
2023-12-12T15:25:54.003Z,98912.50
2023-12-12T15:28:25.587Z,98909.06
2023-12-12T15:31:07.306Z,98904.72
2023-12-12T15:33:37.345Z,98893.50
2023-12-12T15:36:08.991Z,98896.13
2023-12-12T15:38:36.122Z,98888.34
2023-12-12T15:41:05.610Z,98897.88
2023-12-12T15:43:35.145Z,98890.06
2023-12-12T15:46:08.442Z,98895.25
2023-12-12T15:48:42.469Z,98886.59
2023-12-12T15:51:18.068Z,98896.09
2023-12-12T15:57:29.351Z,98889.09
2023-12-12T16:04:02.067Z,98887.34
2023-12-12T16:06:29.393Z,98895.16
2023-12-12T16:08:56.999Z,98892.53
2023-12-12T16:11:31.578Z,98903.72
2023-12-12T16:14:03.082Z,98909.78
2023-12-12T16:16:34.664Z,98917.59
2023-12-12T16:23:11.750Z,98928.00
2023-12-12T16:29:23.915Z,98916.75
2023-12-12T16:32:43.668Z,98912.59
2023-12-12T16:35:55.866Z,98915.97
2023-12-12T16:38:41.609Z,98904.63
2023-12-12T16:41:13.913Z,98915.91
2023-12-12T16:43:48.239Z,98902.84
2023-12-12T16:46:24.424Z,98907.13
2023-12-12T16:49:05.342Z,98907.91
2023-12-12T16:51:37.615Z,98903.53
2023-12-12T16:54:37.591Z,98899.97
2023-12-12T16:57:11.266Z,98893.94
2023-12-12T16:59:39.414Z,98893.09
2023-12-12T17:02:09.319Z,98896.63
2023-12-12T17:04:37.042Z,98893.97
2023-12-12T17:07:05.367Z,98890.53
2023-12-12T17:09:55.151Z,98889.69
2023-12-12T17:16:20.713Z,98880.97
2023-12-12T17:18:55.501Z,98881.81
2023-12-12T17:21:44.209Z,98880.03
2023-12-12T17:24:12.175Z,98874.09
2023-12-12T17:26:39.853Z,98881.88
2023-12-12T17:29:08.247Z,98878.41
2023-12-12T17:31:35.714Z,98885.34
2023-12-12T17:34:03.229Z,98884.41
2023-12-12T17:36:45.421Z,98880.97
2023-12-12T17:39:16.318Z,98880.94
2023-12-12T17:41:52.116Z,98875.72
2023-12-12T17:44:28.362Z,98876.56
2023-12-12T17:47:15.952Z,98881.75
2023-12-12T17:49:44.036Z,98886.16
2023-12-12T17:52:18.171Z,98894.75
2023-12-12T17:54:45.391Z,98890.44
2023-12-12T17:57:21.152Z,98889.53
2023-12-12T17:59:59.139Z,98881.78
2023-12-12T18:02:26.350Z,98886.94
2023-12-12T18:05:29.411Z,98880.78
2023-12-12T18:07:56.965Z,98872.94
2023-12-12T18:10:35.566Z,98872.84
2023-12-12T18:13:02.714Z,98873.63
2023-12-12T18:15:29.639Z,98859.00
2023-12-12T18:17:58.925Z,98862.34
2023-12-12T18:20:27.790Z,98863.97
2023-12-12T18:22:58.802Z,98865.75
2023-12-12T18:25:28.023Z,98876.94
2023-12-12T18:28:00.101Z,98876.00
2023-12-12T18:30:33.584Z,98865.66
2023-12-12T18:33:04.057Z,98865.63
2023-12-12T18:35:44.380Z,98869.88
2023-12-12T18:38:19.097Z,98862.22
2023-12-12T18:40:56.391Z,98868.31
2023-12-12T18:43:24.171Z,98865.75
2023-12-12T18:46:00.329Z,98864.53
2023-12-12T18:48:27.851Z,98856.56
2023-12-12T18:50:55.215Z,98859.06
2023-12-12T18:53:22.270Z,98859.06
2023-12-12T18:55:49.283Z,98869.41
2023-12-12T18:58:16.552Z,98876.28
2023-12-12T19:00:45.637Z,98883.19
2023-12-12T19:03:15.194Z,98885.69
2023-12-12T19:05:43.531Z,98865.84
2023-12-12T19:08:11.453Z,98869.31
2023-12-12T19:10:38.926Z,98858.03
2023-12-12T19:13:06.189Z,98858.91
2023-12-12T19:15:33.561Z,98867.59
2023-12-12T19:18:00.559Z,98866.66
2023-12-12T19:20:27.793Z,98874.53
2023-12-12T19:23:00.289Z,98865.81
2023-12-12T19:25:28.772Z,98861.53
2023-12-12T19:27:56.002Z,98858.88
2023-12-12T19:30:24.334Z,98860.66
2023-12-12T19:32:51.397Z,98839.84
2023-12-12T19:35:19.039Z,98849.44
2023-12-12T19:37:49.942Z,98846.81
2023-12-12T19:40:21.448Z,98857.13
2023-12-12T19:42:49.364Z,98845.03
2023-12-12T19:45:21.407Z,98846.75
2023-12-12T19:47:48.511Z,98835.47
2023-12-12T19:50:16.837Z,98828.59
2023-12-12T19:52:52.509Z,98830.19
2023-12-12T19:55:20.308Z,98821.56
2023-12-12T19:57:47.529Z,98835.38
2023-12-12T20:04:36.215Z,98823.28
2023-12-12T20:07:17.446Z,98824.13
2023-12-12T20:09:46.531Z,98821.50
2023-12-12T20:12:13.473Z,98825.00
2023-12-12T20:14:40.383Z,98833.53
2023-12-12T20:17:07.349Z,98822.38
2023-12-12T20:19:34.457Z,98821.53
2023-12-12T20:22:01.385Z,98840.59
2023-12-12T20:24:31.441Z,98835.38
2023-12-12T20:27:02.647Z,98837.22
2023-12-12T20:29:37.228Z,98841.50
2023-12-12T20:32:04.407Z,98832.81
2023-12-12T20:34:31.461Z,98831.06
2023-12-12T20:36:58.635Z,98836.19
2023-12-12T20:39:25.959Z,98828.47
2023-12-12T20:41:52.794Z,98824.19
2023-12-12T20:44:19.683Z,98818.22
2023-12-12T20:46:46.680Z,98823.41
2023-12-12T20:49:14.181Z,98822.53
2023-12-12T20:51:44.160Z,98813.94
2023-12-12T20:54:12.569Z,98816.63
2023-12-12T20:56:42.959Z,98818.31
2023-12-12T20:59:11.802Z,98808.78
2023-12-12T21:01:38.755Z,98808.88
2023-12-12T21:04:05.887Z,98805.41
2023-12-12T21:06:57.778Z,98808.06
2023-12-12T21:09:48.097Z,98794.22
2023-12-12T21:12:21.105Z,98794.22
2023-12-12T21:14:48.215Z,98786.47
2023-12-12T21:17:36.002Z,98781.28
2023-12-12T21:20:10.438Z,98792.56
2023-12-12T21:22:43.565Z,98773.50
2023-12-12T21:25:13.216Z,98784.75
2023-12-12T21:28:02.913Z,98781.25
2023-12-12T21:30:59.719Z,98783.81
2023-12-12T21:37:37.656Z,98765.56
2023-12-12T21:40:29.391Z,98770.66
2023-12-12T21:43:08.492Z,98768.91
2023-12-12T21:45:42.522Z,98762.81
2023-12-12T21:48:09.730Z,98780.88
2023-12-12T21:50:36.901Z,98772.22
2023-12-12T21:53:03.891Z,98766.16
2023-12-12T21:55:30.849Z,98773.13
2023-12-12T21:57:58.085Z,98768.69
2023-12-12T22:00:26.194Z,98773.97
2023-12-12T22:02:53.172Z,98754.94
2023-12-12T22:05:20.088Z,98754.00
2023-12-12T22:07:55.283Z,98762.66
2023-12-12T22:10:22.382Z,98757.44
2023-12-12T22:12:50.310Z,98743.63
2023-12-12T22:15:18.367Z,98747.06
2023-12-12T22:17:47.345Z,98740.13
2023-12-12T22:20:17.854Z,98730.63
2023-12-12T22:23:09.701Z,98740.03
2023-12-12T22:25:43.942Z,98740.88
2023-12-12T22:28:16.790Z,98731.38
2023-12-12T22:30:43.711Z,98717.59
2023-12-12T22:33:26.005Z,98714.94
2023-12-12T22:36:23.946Z,98712.38
2023-12-12T22:39:08.472Z,98698.53
2023-12-12T22:41:45.080Z,98691.47
2023-12-12T22:44:23.753Z,98694.97
